sensor_id;sensor_type;location;lat;lon;timestamp;pressure;altitude;pressure_sealevel;temperature;humidity
10832;BME280;5469;48.574;8.768;2023-02-28T00:01:27;95337.56;;;-1.60;nan
10832;BME280;5469;48.574;8.768;2023-02-28T00:04:01;95338.19;;;-1.58;nan
10832;BME280;5469;48.574;8.768;2023-02-28T00:06:35;95341.28;;;-1.48;nan
10832;BME280;5469;48.574;8.768;2023-02-28T00:09:08;95347.88;;;-1.67;nan
10832;BME280;5469;48.574;8.768;2023-02-28T00:11:41;95337.50;;;-1.45;nan
10832;BME280;5469;48.574;8.768;2023-02-28T00:14:16;95339.50;;;-1.04;nan
10832;BME280;5469;48.574;8.768;2023-02-28T00:16:49;95338.19;;;-0.94;nan
10832;BME280;5469;48.574;8.768;2023-02-28T00:19:23;95344.25;;;-0.86;nan
10832;BME280;5469;48.574;8.768;2023-02-28T00:21:56;95340.94;;;-1.23;nan
10832;BME280;5469;48.574;8.768;2023-02-28T00:24:30;95342.69;;;-1.67;nan
10832;BME280;5469;48.574;8.768;2023-02-28T00:27:03;95343.13;;;-1.27;nan
10832;BME280;5469;48.574;8.768;2023-02-28T00:29:38;95333.91;;;-1.01;nan
10832;BME280;5469;48.574;8.768;2023-02-28T00:32:11;95337.72;;;-1.25;nan
10832;BME280;5469;48.574;8.768;2023-02-28T00:34:45;95326.94;;;-1.01;nan
10832;BME280;5469;48.574;8.768;2023-02-28T00:37:18;95329.78;;;-1.39;nan
10832;BME280;5469;48.574;8.768;2023-02-28T00:39:51;95330.19;;;-0.92;nan
10832;BME280;5469;48.574;8.768;2023-02-28T00:42:25;95333.69;;;-1.49;nan
10832;BME280;5469;48.574;8.768;2023-02-28T00:45:00;95329.06;;;-1.11;nan
10832;BME280;5469;48.574;8.768;2023-02-28T00:47:33;95331.16;;;-1.21;nan
10832;BME280;5469;48.574;8.768;2023-02-28T00:50:08;95337.91;;;-1.05;nan
10832;BME280;5469;48.574;8.768;2023-02-28T00:52:41;95333.34;;;-0.97;nan
10832;BME280;5469;48.574;8.768;2023-02-28T00:55:16;95333.63;;;-1.13;nan
10832;BME280;5469;48.574;8.768;2023-02-28T00:57:50;95329.53;;;-1.65;nan
10832;BME280;5469;48.574;8.768;2023-02-28T01:00:25;95328.53;;;-1.00;nan
10832;BME280;5469;48.574;8.768;2023-02-28T01:02:58;95331.72;;;-1.47;nan
10832;BME280;5469;48.574;8.768;2023-02-28T01:05:32;95327.91;;;-1.66;nan
10832;BME280;5469;48.574;8.768;2023-02-28T01:08:05;95318.03;;;-1.13;nan
10832;BME280;5469;48.574;8.768;2023-02-28T01:10:38;95317.59;;;-1.17;nan
10832;BME280;5469;48.574;8.768;2023-02-28T01:13:12;95322.13;;;-1.83;nan
10832;BME280;5469;48.574;8.768;2023-02-28T01:15:50;95322.84;;;-1.53;nan
10832;BME280;5469;48.574;8.768;2023-02-28T01:18:24;95320.69;;;-1.28;nan
10832;BME280;5469;48.574;8.768;2023-02-28T01:20:57;95311.22;;;-1.36;nan
10832;BME280;5469;48.574;8.768;2023-02-28T01:23:31;95323.66;;;-1.89;nan
10832;BME280;5469;48.574;8.768;2023-02-28T01:26:05;95314.94;;;-2.17;nan
10832;BME280;5469;48.574;8.768;2023-02-28T01:28:38;95320.06;;;-1.88;nan
10832;BME280;5469;48.574;8.768;2023-02-28T01:31:14;95321.88;;;-2.03;nan
10832;BME280;5469;48.574;8.768;2023-02-28T01:33:47;95320.22;;;-1.74;nan
10832;BME280;5469;48.574;8.768;2023-02-28T01:36:22;95321.63;;;-2.08;nan
10832;BME280;5469;48.574;8.768;2023-02-28T01:38:56;95317.31;;;-1.86;nan
10832;BME280;5469;48.574;8.768;2023-02-28T01:41:32;95309.28;;;-2.06;nan
10832;BME280;5469;48.574;8.768;2023-02-28T01:46:41;95305.88;;;-2.22;nan
10832;BME280;5469;48.574;8.768;2023-02-28T01:49:16;95311.19;;;-2.30;nan
10832;BME280;5469;48.574;8.768;2023-02-28T01:51:54;95311.50;;;-2.03;nan
10832;BME280;5469;48.574;8.768;2023-02-28T01:54:31;95304.09;;;-1.70;nan
10832;BME280;5469;48.574;8.768;2023-02-28T01:57:08;95314.34;;;-1.98;nan
10832;BME280;5469;48.574;8.768;2023-02-28T01:59:47;95306.56;;;-1.98;nan
10832;BME280;5469;48.574;8.768;2023-02-28T02:02:24;95300.03;;;-1.94;nan
10832;BME280;5469;48.574;8.768;2023-02-28T02:05:00;95304.53;;;-2.17;nan
10832;BME280;5469;48.574;8.768;2023-02-28T02:07:37;95311.00;;;-1.77;nan
10832;BME280;5469;48.574;8.768;2023-02-28T02:10:13;95304.34;;;-2.01;nan
10832;BME280;5469;48.574;8.768;2023-02-28T02:13:08;95306.25;;;-2.10;nan
10832;BME280;5469;48.574;8.768;2023-02-28T02:15:49;95295.69;;;-1.87;nan
10832;BME280;5469;48.574;8.768;2023-02-28T02:18:31;95294.47;;;-1.91;nan
10832;BME280;5469;48.574;8.768;2023-02-28T02:24:45;95285.66;;;-1.90;nan
10832;BME280;5469;48.574;8.768;2023-02-28T02:27:27;95289.34;;;-2.50;nan
10832;BME280;5469;48.574;8.768;2023-02-28T02:30:19;95283.56;;;-2.01;nan
10832;BME280;5469;48.574;8.768;2023-02-28T02:33:30;95286.63;;;-1.76;nan
10832;BME280;5469;48.574;8.768;2023-02-28T02:36:12;95286.78;;;-1.99;nan
10832;BME280;5469;48.574;8.768;2023-02-28T02:38:49;95285.47;;;-2.10;nan
10832;BME280;5469;48.574;8.768;2023-02-28T02:41:31;95288.84;;;-2.09;nan
10832;BME280;5469;48.574;8.768;2023-02-28T02:44:13;95284.34;;;-2.67;nan
10832;BME280;5469;48.574;8.768;2023-02-28T02:46:50;95288.25;;;-1.90;nan
10832;BME280;5469;48.574;8.768;2023-02-28T02:49:30;95284.16;;;-2.50;nan
10832;BME280;5469;48.574;8.768;2023-02-28T02:52:08;95286.13;;;-2.52;nan
10832;BME280;5469;48.574;8.768;2023-02-28T02:54:44;95286.25;;;-2.09;nan
10832;BME280;5469;48.574;8.768;2023-02-28T02:57:22;95285.69;;;-2.41;nan
10832;BME280;5469;48.574;8.768;2023-02-28T02:59:57;95281.19;;;-2.32;nan
10832;BME280;5469;48.574;8.768;2023-02-28T03:02:33;95293.47;;;-2.41;nan
10832;BME280;5469;48.574;8.768;2023-02-28T03:05:13;95286.38;;;-2.17;nan
10832;BME280;5469;48.574;8.768;2023-02-28T03:07:49;95290.34;;;-2.00;nan
10832;BME280;5469;48.574;8.768;2023-02-28T03:10:29;95288.13;;;-2.18;nan
10832;BME280;5469;48.574;8.768;2023-02-28T03:13:15;95284.84;;;-2.27;nan
10832;BME280;5469;48.574;8.768;2023-02-28T03:15:59;95287.66;;;-1.92;nan
10832;BME280;5469;48.574;8.768;2023-02-28T03:18:42;95280.53;;;-2.20;nan
10832;BME280;5469;48.574;8.768;2023-02-28T03:21:20;95290.59;;;-2.46;nan
10832;BME280;5469;48.574;8.768;2023-02-28T03:24:04;95292.53;;;-2.18;nan
10832;BME280;5469;48.574;8.768;2023-02-28T03:26:42;95286.56;;;-2.64;nan
10832;BME280;5469;48.574;8.768;2023-02-28T03:29:21;95282.44;;;-2.73;nan
10832;BME280;5469;48.574;8.768;2023-02-28T03:32:02;95283.41;;;-2.14;nan
10832;BME280;5469;48.574;8.768;2023-02-28T03:34:38;95282.25;;;-2.12;nan
10832;BME280;5469;48.574;8.768;2023-02-28T03:37:16;95283.28;;;-2.06;nan
10832;BME280;5469;48.574;8.768;2023-02-28T03:39:57;95279.91;;;-2.07;nan
10832;BME280;5469;48.574;8.768;2023-02-28T03:42:34;95276.78;;;-2.32;nan
10832;BME280;5469;48.574;8.768;2023-02-28T03:45:12;95272.88;;;-2.28;nan
10832;BME280;5469;48.574;8.768;2023-02-28T03:47:51;95273.94;;;-2.37;nan
10832;BME280;5469;48.574;8.768;2023-02-28T03:50:29;95280.09;;;-2.23;nan
10832;BME280;5469;48.574;8.768;2023-02-28T03:53:11;95276.78;;;-2.32;nan
10832;BME280;5469;48.574;8.768;2023-02-28T03:55:50;95271.75;;;-2.18;nan
10832;BME280;5469;48.574;8.768;2023-02-28T03:58:29;95273.00;;;-2.14;nan
10832;BME280;5469;48.574;8.768;2023-02-28T04:01:07;95279.13;;;-2.37;nan
10832;BME280;5469;48.574;8.768;2023-02-28T04:03:42;95281.31;;;-2.04;nan
10832;BME280;5469;48.574;8.768;2023-02-28T04:06:18;95274.97;;;-2.16;nan
10832;BME280;5469;48.574;8.768;2023-02-28T04:08:52;95271.56;;;-2.02;nan
10832;BME280;5469;48.574;8.768;2023-02-28T04:11:32;95282.34;;;-2.35;nan
10832;BME280;5469;48.574;8.768;2023-02-28T04:14:08;95275.72;;;-2.23;nan
10832;BME280;5469;48.574;8.768;2023-02-28T04:16:42;95281.19;;;-2.17;nan
10832;BME280;5469;48.574;8.768;2023-02-28T04:19:15;95281.59;;;-1.99;nan
10832;BME280;5469;48.574;8.768;2023-02-28T04:21:50;95283.63;;;-2.31;nan
10832;BME280;5469;48.574;8.768;2023-02-28T04:24:25;95272.69;;;-1.90;nan
10832;BME280;5469;48.574;8.768;2023-02-28T04:27:01;95276.16;;;-2.19;nan
10832;BME280;5469;48.574;8.768;2023-02-28T04:29:34;95281.22;;;-1.96;nan
10832;BME280;5469;48.574;8.768;2023-02-28T04:32:07;95278.13;;;-1.85;nan
10832;BME280;5469;48.574;8.768;2023-02-28T04:34:41;95274.91;;;-1.87;nan
10832;BME280;5469;48.574;8.768;2023-02-28T04:37:14;95276.34;;;-1.84;nan
10832;BME280;5469;48.574;8.768;2023-02-28T04:39:47;95276.53;;;-1.86;nan
10832;BME280;5469;48.574;8.768;2023-02-28T04:42:22;95277.63;;;-1.95;nan
10832;BME280;5469;48.574;8.768;2023-02-28T04:44:55;95277.09;;;-2.05;nan
10832;BME280;5469;48.574;8.768;2023-02-28T04:47:29;95274.75;;;-2.00;nan
10832;BME280;5469;48.574;8.768;2023-02-28T04:50:04;95276.38;;;-1.99;nan
10832;BME280;5469;48.574;8.768;2023-02-28T04:52:39;95276.94;;;-2.18;nan
10832;BME280;5469;48.574;8.768;2023-02-28T04:55:15;95272.53;;;-2.03;nan
10832;BME280;5469;48.574;8.768;2023-02-28T04:57:52;95275.91;;;-1.88;nan
10832;BME280;5469;48.574;8.768;2023-02-28T05:00:27;95274.59;;;-1.99;nan
10832;BME280;5469;48.574;8.768;2023-02-28T05:03:02;95283.13;;;-1.68;nan
10832;BME280;5469;48.574;8.768;2023-02-28T05:05:37;95285.16;;;-2.00;nan
10832;BME280;5469;48.574;8.768;2023-02-28T05:08:11;95274.19;;;-1.81;nan
10832;BME280;5469;48.574;8.768;2023-02-28T05:10:46;95280.59;;;-1.77;nan
10832;BME280;5469;48.574;8.768;2023-02-28T05:13:23;95281.66;;;-1.92;nan
10832;BME280;5469;48.574;8.768;2023-02-28T05:15:58;95284.22;;;-1.78;nan
10832;BME280;5469;48.574;8.768;2023-02-28T05:18:33;95285.09;;;-1.70;nan
10832;BME280;5469;48.574;8.768;2023-02-28T05:21:26;95289.41;;;-1.78;nan
10832;BME280;5469;48.574;8.768;2023-02-28T05:24:03;95287.28;;;-1.52;nan
10832;BME280;5469;48.574;8.768;2023-02-28T05:26:40;95290.50;;;-1.87;nan
10832;BME280;5469;48.574;8.768;2023-02-28T05:29:17;95287.19;;;-1.81;nan
10832;BME280;5469;48.574;8.768;2023-02-28T05:31:53;95291.31;;;-2.23;nan
10832;BME280;5469;48.574;8.768;2023-02-28T05:34:29;95289.31;;;-1.84;nan
10832;BME280;5469;48.574;8.768;2023-02-28T05:37:04;95286.03;;;-1.93;nan
10832;BME280;5469;48.574;8.768;2023-02-28T05:39:39;95286.94;;;-2.01;nan
10832;BME280;5469;48.574;8.768;2023-02-28T05:42:14;95287.16;;;-2.17;nan
10832;BME280;5469;48.574;8.768;2023-02-28T05:44:51;95287.28;;;-1.89;nan
10832;BME280;5469;48.574;8.768;2023-02-28T05:47:27;95288.91;;;-1.88;nan
10832;BME280;5469;48.574;8.768;2023-02-28T05:50:02;95278.50;;;-1.88;nan
10832;BME280;5469;48.574;8.768;2023-02-28T05:52:37;95283.28;;;-1.70;nan
10832;BME280;5469;48.574;8.768;2023-02-28T05:55:13;95288.19;;;-1.60;nan
10832;BME280;5469;48.574;8.768;2023-02-28T05:57:48;95284.22;;;-1.78;nan
10832;BME280;5469;48.574;8.768;2023-02-28T06:00:24;95287.94;;;-1.65;nan
10832;BME280;5469;48.574;8.768;2023-02-28T06:02:59;95291.75;;;-1.83;nan
10832;BME280;5469;48.574;8.768;2023-02-28T06:05:35;95285.56;;;-1.82;nan
10832;BME280;5469;48.574;8.768;2023-02-28T06:08:12;95291.38;;;-1.80;nan
10832;BME280;5469;48.574;8.768;2023-02-28T06:10:47;95299.00;;;-1.57;nan
10832;BME280;5469;48.574;8.768;2023-02-28T06:13:21;95301.19;;;-1.60;nan
10832;BME280;5469;48.574;8.768;2023-02-28T06:15:59;95305.13;;;-1.64;nan
10832;BME280;5469;48.574;8.768;2023-02-28T06:18:35;95310.94;;;-1.84;nan
10832;BME280;5469;48.574;8.768;2023-02-28T06:21:13;95315.63;;;-1.94;nan
10832;BME280;5469;48.574;8.768;2023-02-28T06:23:48;95314.56;;;-1.63;nan
10832;BME280;5469;48.574;8.768;2023-02-28T06:26:23;95324.63;;;-1.90;nan
10832;BME280;5469;48.574;8.768;2023-02-28T06:28:58;95311.63;;;-1.54;nan
10832;BME280;5469;48.574;8.768;2023-02-28T06:31:37;95320.19;;;-1.60;nan
10832;BME280;5469;48.574;8.768;2023-02-28T06:34:13;95319.38;;;-1.39;nan
10832;BME280;5469;48.574;8.768;2023-02-28T06:36:50;95323.00;;;-1.40;nan
10832;BME280;5469;48.574;8.768;2023-02-28T06:39:25;95319.47;;;-1.32;nan
10832;BME280;5469;48.574;8.768;2023-02-28T06:42:00;95327.66;;;-1.07;nan
10832;BME280;5469;48.574;8.768;2023-02-28T06:44:35;95323.09;;;-1.26;nan
10832;BME280;5469;48.574;8.768;2023-02-28T06:47:12;95329.88;;;-1.04;nan
10832;BME280;5469;48.574;8.768;2023-02-28T06:49:47;95331.34;;;-1.44;nan
10832;BME280;5469;48.574;8.768;2023-02-28T06:52:22;95340.56;;;-1.78;nan
10832;BME280;5469;48.574;8.768;2023-02-28T06:54:57;95333.25;;;-1.53;nan
10832;BME280;5469;48.574;8.768;2023-02-28T06:57:36;95337.94;;;-1.63;nan
10832;BME280;5469;48.574;8.768;2023-02-28T07:00:14;95331.88;;;-1.27;nan
10832;BME280;5469;48.574;8.768;2023-02-28T07:02:50;95335.97;;;-1.18;nan
10832;BME280;5469;48.574;8.768;2023-02-28T07:05:27;95340.06;;;-1.52;nan
10832;BME280;5469;48.574;8.768;2023-02-28T07:08:03;95343.28;;;-1.50;nan
10832;BME280;5469;48.574;8.768;2023-02-28T07:10:41;95342.84;;;-1.11;nan
10832;BME280;5469;48.574;8.768;2023-02-28T07:13:18;95341.28;;;-1.48;nan
10832;BME280;5469;48.574;8.768;2023-02-28T07:15:58;95340.06;;;-1.30;nan
10832;BME280;5469;48.574;8.768;2023-02-28T07:18:35;95343.66;;;-1.32;nan
10832;BME280;5469;48.574;8.768;2023-02-28T07:21:13;95352.28;;;-0.81;nan
10832;BME280;5469;48.574;8.768;2023-02-28T07:23:48;95340.81;;;-1.15;nan
10832;BME280;5469;48.574;8.768;2023-02-28T07:26:23;95345.25;;;-0.88;nan
10832;BME280;5469;48.574;8.768;2023-02-28T07:28:58;95341.91;;;-1.03;nan
10832;BME280;5469;48.574;8.768;2023-02-28T07:31:33;95345.75;;;-1.42;nan
10832;BME280;5469;48.574;8.768;2023-02-28T07:34:10;95355.13;;;-1.26;nan
10832;BME280;5469;48.574;8.768;2023-02-28T07:36:45;95349.53;;;-1.23;nan
10832;BME280;5469;48.574;8.768;2023-02-28T07:39:20;95348.59;;;-0.94;nan
10832;BME280;5469;48.574;8.768;2023-02-28T07:41:56;95353.19;;;-1.17;nan
10832;BME280;5469;48.574;8.768;2023-02-28T07:44:31;95349.22;;;-1.13;nan
10832;BME280;5469;48.574;8.768;2023-02-28T07:47:07;95350.97;;;-1.20;nan
10832;BME280;5469;48.574;8.768;2023-02-28T07:49:45;95349.91;;;-1.04;nan
10832;BME280;5469;48.574;8.768;2023-02-28T07:52:20;95360.25;;;-0.90;nan
10832;BME280;5469;48.574;8.768;2023-02-28T07:54:57;95357.13;;;-0.78;nan
10832;BME280;5469;48.574;8.768;2023-02-28T07:57:32;95359.75;;;-1.00;nan
10832;BME280;5469;48.574;8.768;2023-02-28T08:00:09;95353.78;;;-0.72;nan
10832;BME280;5469;48.574;8.768;2023-02-28T08:02:46;95359.56;;;-1.20;nan
10832;BME280;5469;48.574;8.768;2023-02-28T08:05:22;95354.28;;;-0.83;nan
10832;BME280;5469;48.574;8.768;2023-02-28T08:07:57;95352.22;;;-0.38;nan
10832;BME280;5469;48.574;8.768;2023-02-28T08:10:33;95358.16;;;-0.45;nan
10832;BME280;5469;48.574;8.768;2023-02-28T08:13:09;95360.91;;;-0.53;nan
10832;BME280;5469;48.574;8.768;2023-02-28T08:15:44;95363.22;;;-0.36;nan
10832;BME280;5469;48.574;8.768;2023-02-28T08:18:22;95371.88;;;-0.29;nan
10832;BME280;5469;48.574;8.768;2023-02-28T08:20:58;95373.50;;;-0.84;nan
10832;BME280;5469;48.574;8.768;2023-02-28T08:23:33;95380.09;;;-0.60;nan
10832;BME280;5469;48.574;8.768;2023-02-28T08:26:08;95380.53;;;-0.57;nan
10832;BME280;5469;48.574;8.768;2023-02-28T08:28:44;95382.41;;;-0.72;nan
10832;BME280;5469;48.574;8.768;2023-02-28T08:31:20;95383.56;;;-0.53;nan
10832;BME280;5469;48.574;8.768;2023-02-28T08:33:56;95377.63;;;-0.40;nan
10832;BME280;5469;48.574;8.768;2023-02-28T08:36:34;95372.25;;;0.03;nan
10832;BME280;5469;48.574;8.768;2023-02-28T08:39:09;95369.56;;;-0.17;nan
10832;BME280;5469;48.574;8.768;2023-02-28T08:41:45;95379.47;;;-0.34;nan
10832;BME280;5469;48.574;8.768;2023-02-28T08:44:20;95385.84;;;-0.65;nan
10832;BME280;5469;48.574;8.768;2023-02-28T08:46:55;95370.25;;;-0.02;nan
10832;BME280;5469;48.574;8.768;2023-02-28T08:49:32;95381.72;;;0.04;nan
10832;BME280;5469;48.574;8.768;2023-02-28T08:52:09;95383.41;;;-0.45;nan
10832;BME280;5469;48.574;8.768;2023-02-28T08:54:44;95389.81;;;-0.48;nan
10832;BME280;5469;48.574;8.768;2023-02-28T08:57:19;95391.59;;;-0.20;nan
10832;BME280;5469;48.574;8.768;2023-02-28T08:59:55;95390.06;;;-0.08;nan
10832;BME280;5469;48.574;8.768;2023-02-28T09:02:30;95400.69;;;-0.37;nan
10832;BME280;5469;48.574;8.768;2023-02-28T09:05:07;95395.34;;;0.06;nan
10832;BME280;5469;48.574;8.768;2023-02-28T09:07:44;95395.34;;;0.06;nan
10832;BME280;5469;48.574;8.768;2023-02-28T09:10:20;95393.66;;;-0.09;nan
10832;BME280;5469;48.574;8.768;2023-02-28T09:12:55;95398.03;;;-0.16;nan
10832;BME280;5469;48.574;8.768;2023-02-28T09:15:30;95404.69;;;0.28;nan
10832;BME280;5469;48.574;8.768;2023-02-28T09:18:05;95399.31;;;-0.05;nan
10832;BME280;5469;48.574;8.768;2023-02-28T09:20:40;95393.03;;;0.24;nan
10832;BME280;5469;48.574;8.768;2023-02-28T09:23:18;95399.09;;;0.31;nan
10832;BME280;5469;48.574;8.768;2023-02-28T09:25:55;95402.00;;;0.15;nan
10832;BME280;5469;48.574;8.768;2023-02-28T09:28:31;95399.00;;;0.11;nan
10832;BME280;5469;48.574;8.768;2023-02-28T09:31:06;95399.09;;;-0.04;nan
10832;BME280;5469;48.574;8.768;2023-02-28T09:33:41;95394.97;;;0.09;nan
10832;BME280;5469;48.574;8.768;2023-02-28T09:36:16;95398.56;;;0.08;nan
10832;BME280;5469;48.574;8.768;2023-02-28T09:38:52;95395.06;;;0.29;nan
10832;BME280;5469;48.574;8.768;2023-02-28T09:41:30;95401.84;;;0.23;nan
10832;BME280;5469;48.574;8.768;2023-02-28T09:44:12;95401.53;;;0.39;nan
10832;BME280;5469;48.574;8.768;2023-02-28T09:46:51;95402.28;;;0.33;nan
10832;BME280;5469;48.574;8.768;2023-02-28T09:49:37;95411.97;;;0.39;nan
10832;BME280;5469;48.574;8.768;2023-02-28T09:52:16;95406.75;;;0.39;nan
10832;BME280;5469;48.574;8.768;2023-02-28T09:54:54;95407.97;;;0.43;nan
10832;BME280;5469;48.574;8.768;2023-02-28T09:57:35;95409.41;;;0.53;nan
10832;BME280;5469;48.574;8.768;2023-02-28T10:00:17;95414.41;;;0.48;nan
10832;BME280;5469;48.574;8.768;2023-02-28T10:03:00;95422.50;;;0.66;nan
10832;BME280;5469;48.574;8.768;2023-02-28T10:05:41;95410.09;;;0.81;nan
10832;BME280;5469;48.574;8.768;2023-02-28T10:08:21;95418.94;;;0.87;nan
10832;BME280;5469;48.574;8.768;2023-02-28T10:11:03;95416.16;;;0.95;nan
10832;BME280;5469;48.574;8.768;2023-02-28T10:13:49;95410.75;;;0.97;nan
10832;BME280;5469;48.574;8.768;2023-02-28T10:16:29;95414.88;;;0.71;nan
10832;BME280;5469;48.574;8.768;2023-02-28T10:19:09;95430.03;;;1.16;nan
10832;BME280;5469;48.574;8.768;2023-02-28T10:21:54;95422.56;;;0.86;nan
10832;BME280;5469;48.574;8.768;2023-02-28T10:24:33;95429.00;;;1.03;nan
10832;BME280;5469;48.574;8.768;2023-02-28T10:27:17;95431.00;;;0.95;nan
10832;BME280;5469;48.574;8.768;2023-02-28T10:29:55;95430.06;;;1.22;nan
10832;BME280;5469;48.574;8.768;2023-02-28T10:32:33;95425.81;;;1.01;nan
10832;BME280;5469;48.574;8.768;2023-02-28T10:35:16;95428.66;;;1.40;nan
10832;BME280;5469;48.574;8.768;2023-02-28T10:37:54;95424.63;;;1.17;nan
10832;BME280;5469;48.574;8.768;2023-02-28T10:40:31;95424.53;;;0.77;nan
10832;BME280;5469;48.574;8.768;2023-02-28T10:43:20;95426.06;;;1.53;nan
10832;BME280;5469;48.574;8.768;2023-02-28T10:45:57;95429.44;;;1.27;nan
10832;BME280;5469;48.574;8.768;2023-02-28T10:48:39;95432.69;;;1.29;nan
10832;BME280;5469;48.574;8.768;2023-02-28T10:51:18;95430.28;;;1.41;nan
10832;BME280;5469;48.574;8.768;2023-02-28T10:53:56;95433.91;;;1.53;nan
10832;BME280;5469;48.574;8.768;2023-02-28T10:56:32;95432.91;;;1.67;nan
10832;BME280;5469;48.574;8.768;2023-02-28T10:59:26;95431.09;;;1.74;nan
10832;BME280;5469;48.574;8.768;2023-02-28T11:02:01;95432.28;;;1.79;nan
10832;BME280;5469;48.574;8.768;2023-02-28T11:04:37;95435.28;;;1.42;nan
10832;BME280;5469;48.574;8.768;2023-02-28T11:07:19;95443.13;;;1.89;nan
10832;BME280;5469;48.574;8.768;2023-02-28T11:09:56;95436.31;;;1.88;nan
10832;BME280;5469;48.574;8.768;2023-02-28T11:12:37;95435.28;;;2.02;nan
10832;BME280;5469;48.574;8.768;2023-02-28T11:15:25;95437.88;;;2.02;nan
10832;BME280;5469;48.574;8.768;2023-02-28T11:18:02;95434.66;;;2.07;nan
10832;BME280;5469;48.574;8.768;2023-02-28T11:20:51;95438.69;;;2.16;nan
10832;BME280;5469;48.574;8.768;2023-02-28T11:23:29;95436.28;;;2.14;nan
10832;BME280;5469;48.574;8.768;2023-02-28T11:26:05;95440.94;;;2.71;nan
10832;BME280;5469;48.574;8.768;2023-02-28T11:28:43;95438.69;;;2.09;nan
10832;BME280;5469;48.574;8.768;2023-02-28T11:31:20;95439.47;;;2.30;nan
10832;BME280;5469;48.574;8.768;2023-02-28T11:33:56;95451.09;;;2.40;nan
10832;BME280;5469;48.574;8.768;2023-02-28T11:36:32;95456.75;;;2.31;nan
10832;BME280;5469;48.574;8.768;2023-02-28T11:39:19;95447.44;;;2.48;nan
10832;BME280;5469;48.574;8.768;2023-02-28T11:42:07;95442.97;;;2.69;nan
10832;BME280;5469;48.574;8.768;2023-02-28T11:45:03;95439.75;;;2.67;nan
10832;BME280;5469;48.574;8.768;2023-02-28T11:47:47;95439.69;;;2.80;nan
10832;BME280;5469;48.574;8.768;2023-02-28T11:50:33;95450.63;;;2.63;nan
10832;BME280;5469;48.574;8.768;2023-02-28T11:53:21;95442.97;;;2.69;nan
10832;BME280;5469;48.574;8.768;2023-02-28T11:56:03;95440.44;;;2.94;nan
10832;BME280;5469;48.574;8.768;2023-02-28T11:58:48;95433.75;;;3.36;nan
10832;BME280;5469;48.574;8.768;2023-02-28T12:01:37;95421.09;;;3.58;nan
10832;BME280;5469;48.574;8.768;2023-02-28T12:04:21;95430.63;;;3.21;nan
10832;BME280;5469;48.574;8.768;2023-02-28T12:07:03;95426.78;;;4.42;nan
10832;BME280;5469;48.574;8.768;2023-02-28T12:09:50;95419.84;;;4.48;nan
10832;BME280;5469;48.574;8.768;2023-02-28T12:12:38;95436.78;;;4.52;nan
10832;BME280;5469;48.574;8.768;2023-02-28T12:15:24;95422.31;;;4.79;nan
10832;BME280;5469;48.574;8.768;2023-02-28T12:18:09;95415.72;;;4.89;nan
10832;BME280;5469;48.574;8.768;2023-02-28T12:20:57;95423.00;;;5.47;nan
10832;BME280;5469;48.574;8.768;2023-02-28T12:24:00;95416.13;;;7.44;nan
10832;BME280;5469;48.574;8.768;2023-02-28T12:26:44;95419.53;;;6.99;nan
10832;BME280;5469;48.574;8.768;2023-02-28T12:29:23;95411.88;;;5.87;nan
10832;BME280;5469;48.574;8.768;2023-02-28T12:32:06;95417.31;;;5.50;nan
10832;BME280;5469;48.574;8.768;2023-02-28T12:34:47;95420.34;;;5.89;nan
10832;BME280;5469;48.574;8.768;2023-02-28T12:37:29;95412.59;;;5.40;nan
10832;BME280;5469;48.574;8.768;2023-02-28T12:40:09;95409.63;;;6.02;nan
10832;BME280;5469;48.574;8.768;2023-02-28T12:42:49;95406.97;;;5.37;nan
10832;BME280;5469;48.574;8.768;2023-02-28T12:45:28;95413.47;;;5.22;nan
10832;BME280;5469;48.574;8.768;2023-02-28T12:48:10;95411.22;;;5.38;nan
10832;BME280;5469;48.574;8.768;2023-02-28T12:50:49;95403.97;;;5.87;nan
10832;BME280;5469;48.574;8.768;2023-02-28T12:53:31;95402.81;;;7.68;nan
10832;BME280;5469;48.574;8.768;2023-02-28T12:56:19;95387.06;;;9.76;nan
10832;BME280;5469;48.574;8.768;2023-02-28T12:58:57;95382.00;;;10.07;nan
10832;BME280;5469;48.574;8.768;2023-02-28T13:01:53;95385.69;;;10.43;nan
10832;BME280;5469;48.574;8.768;2023-02-28T13:04:57;95383.00;;;8.82;nan
10832;BME280;5469;48.574;8.768;2023-02-28T13:08:01;95376.25;;;10.20;nan
10832;BME280;5469;48.574;8.768;2023-02-28T13:10:40;95378.66;;;9.84;nan
10832;BME280;5469;48.574;8.768;2023-02-28T13:13:19;95380.22;;;8.50;nan
10832;BME280;5469;48.574;8.768;2023-02-28T13:16:02;95392.50;;;7.83;nan
10832;BME280;5469;48.574;8.768;2023-02-28T13:18:39;95393.34;;;7.10;nan
10832;BME280;5469;48.574;8.768;2023-02-28T13:21:26;95385.91;;;8.03;nan
10832;BME280;5469;48.574;8.768;2023-02-28T13:24:04;95392.50;;;9.32;nan
10832;BME280;5469;48.574;8.768;2023-02-28T13:33:31;95377.28;;;11.61;nan
10832;BME280;5469;48.574;8.768;2023-02-28T13:36:29;95375.84;;;9.96;nan
10832;BME280;5469;48.574;8.768;2023-02-28T13:42:36;95374.13;;;12.95;nan
10832;BME280;5469;48.574;8.768;2023-02-28T13:45:24;95369.47;;;13.61;nan
10832;BME280;5469;48.574;8.768;2023-02-28T13:48:12;95386.84;;;10.68;nan
10832;BME280;5469;48.574;8.768;2023-02-28T13:50:51;95389.19;;;11.48;nan
10832;BME280;5469;48.574;8.768;2023-02-28T13:53:48;95379.47;;;13.40;nan
10832;BME280;5469;48.574;8.768;2023-02-28T13:56:33;95374.09;;;14.42;nan
10832;BME280;5469;48.574;8.768;2023-02-28T13:59:19;95377.25;;;13.07;nan
10832;BME280;5469;48.574;8.768;2023-02-28T14:02:03;95375.13;;;12.99;nan
10832;BME280;5469;48.574;8.768;2023-02-28T14:04:59;95368.19;;;14.46;nan
10832;BME280;5469;48.574;8.768;2023-02-28T14:07:40;95375.81;;;15.05;nan
10832;BME280;5469;48.574;8.768;2023-02-28T14:10:25;95381.28;;;15.14;nan
10832;BME280;5469;48.574;8.768;2023-02-28T14:13:11;95386.75;;;13.24;nan
10832;BME280;5469;48.574;8.768;2023-02-28T14:15:55;95380.13;;;13.16;nan
10832;BME280;5469;48.574;8.768;2023-02-28T14:18:33;95383.66;;;13.85;nan
10832;BME280;5469;48.574;8.768;2023-02-28T14:21:14;95382.13;;;13.79;nan
10832;BME280;5469;48.574;8.768;2023-02-28T14:24:20;95381.00;;;12.11;nan
10832;BME280;5469;48.574;8.768;2023-02-28T14:27:14;95376.94;;;12.49;nan
10832;BME280;5469;48.574;8.768;2023-02-28T14:30:13;95375.59;;;13.17;nan
10832;BME280;5469;48.574;8.768;2023-02-28T14:32:54;95379.03;;;12.57;nan
10832;BME280;5469;48.574;8.768;2023-02-28T14:35:44;95375.50;;;12.82;nan
10832;BME280;5469;48.574;8.768;2023-02-28T14:38:25;95368.44;;;13.57;nan
10832;BME280;5469;48.574;8.768;2023-02-28T14:41:06;95382.91;;;13.80;nan
10832;BME280;5469;48.574;8.768;2023-02-28T14:43:55;95383.34;;;12.43;nan
10832;BME280;5469;48.574;8.768;2023-02-28T14:46:39;95376.16;;;13.92;nan
10832;BME280;5469;48.574;8.768;2023-02-28T14:49:18;95389.53;;;12.98;nan
10832;BME280;5469;48.574;8.768;2023-02-28T14:52:05;95397.28;;;9.62;nan
10832;BME280;5469;48.574;8.768;2023-02-28T14:54:43;95394.91;;;9.34;nan
10832;BME280;5469;48.574;8.768;2023-02-28T14:57:25;95388.09;;;11.33;nan